Atascadero, California
Current Conditions -  °F | °C
As of 5:53 PM on Friday 19 Dec 2014 (Local Time) from KPRB Reporting Station
Overcast Overcast  
Wind Chill: 56°   Ceiling: 2100
Heat Index: 56°   Visibility: 10mi
Dew Point: 51°   Wind: 3mph
Humidity: 84%   Direction: 120°ESE
Pressure: 30.18"   Gusts: NA
Location:  35.49°N, 120.66°W
Report Text: KPRB 200153Z AUTO 12003KT 10SM OVC021 13/11 A3018 RMK AO2 SLP219 T01330106 TSNO
Loading
Personal Weather Stations






























Interactive Weather Map New forecast layout! Learn more

10-Day Weather Forecast

Advertisements
Track Severe Weather on mobile